Time;durP1;ratioP1;P1;durP2;ratioP2;P2;SDS_P1;SDS_P2;PMS_P1;PMS_P2;Temp;Humidity;BMP_temperature;BMP_pressure;BME280_temperature;BME280_humidity;BME280_pressure;Samples;Min_cycle;Max_cycle;Signal;HPM_P1;HPM_P2
2023/07/03 00:00:17;;;;;;;15.13;5.67;;;18.40;73.10;;;;;;5053190;28;20487;-45
2023/07/03 00:02:49;;;;;;;7.70;5.03;;;18.40;73.50;;;;;;5035360;28;20475;-45
2023/07/03 00:05:17;;;;;;;10.97;5.97;;;18.40;73.70;;;;;;5053072;28;20457;-46
2023/07/03 00:07:46;;;;;;;7.73;5.27;;;18.40;73.70;;;;;;5052881;28;20513;-47
2023/07/03 00:10:13;;;;;;;10.63;4.67;;;18.40;74.10;;;;;;5052737;28;20461;-45
2023/07/03 00:12:40;;;;;;;10.47;5.50;;;18.30;74.00;;;;;;5053098;28;20448;-48
2023/07/03 00:15:07;;;;;;;8.17;5.00;;;18.30;74.20;;;;;;5053129;28;20481;-46
2023/07/03 00:17:37;;;;;;;11.27;5.30;;;18.30;74.20;;;;;;5034977;28;20442;-46
2023/07/03 00:20:04;;;;;;;12.27;5.73;;;18.30;74.40;;;;;;5051565;28;20444;-44
2023/07/03 00:22:31;;;;;;;11.70;5.40;;;18.20;74.50;;;;;;5052661;28;20438;-45
2023/07/03 00:24:57;;;;;;;8.80;5.30;;;18.20;74.70;;;;;;5052834;28;20827;-46
2023/07/03 00:27:24;;;;;;;9.70;5.50;;;18.20;74.90;;;;;;5052683;28;20992;-46
2023/07/03 00:29:50;;;;;;;11.03;5.87;;;18.20;75.20;;;;;;5034391;28;20442;-45
2023/07/03 00:32:17;;;;;;;6.77;4.47;;;18.30;75.70;;;;;;5034672;28;20464;-46
2023/07/03 00:34:45;;;;;;;8.97;5.53;;;18.10;75.80;;;;;;5034607;28;20485;-45
2023/07/03 00:37:11;;;;;;;7.43;5.20;;;18.10;76.00;;;;;;5052567;28;20430;-45
2023/07/03 00:39:38;;;;;;;8.37;5.70;;;18.00;76.10;;;;;;5034314;28;20964;-46
2023/07/03 00:42:07;;;;;;;7.40;5.67;;;18.00;76.30;;;;;;5034663;28;20453;-47
2023/07/03 00:44:33;;;;;;;7.20;5.27;;;18.00;76.50;;;;;;5052320;28;20958;-46
2023/07/03 00:47:00;;;;;;;9.33;4.97;;;18.00;76.70;;;;;;5034337;28;20457;-45
2023/07/03 00:49:27;;;;;;;9.80;5.77;;;18.00;76.90;;;;;;5051897;28;20456;-46
2023/07/03 00:51:58;;;;;;;8.20;5.23;;;17.90;76.80;;;;;;5052201;28;20428;-45
2023/07/03 00:54:24;;;;;;;10.53;5.40;;;18.10;77.30;;;;;;5034028;28;20489;-45
2023/07/03 00:56:51;;;;;;;8.20;5.80;;;17.90;77.10;;;;;;5034148;28;20453;-45
2023/07/03 00:59:18;;;;;;;11.30;5.80;;;17.90;77.30;;;;;;5051897;28;20451;-45
2023/07/03 01:01:51;;;;;;;9.50;5.10;;;17.90;77.50;;;;;;5052415;28;20487;-45
2023/07/03 01:04:21;;;;;;;12.23;5.90;;;17.90;77.60;;;;;;5052523;28;20471;-45
2023/07/03 01:06:54;;;;;;;9.17;5.40;;;17.80;77.70;;;;;;5034465;28;20458;-44
2023/07/03 01:09:25;;;;;;;8.23;5.20;;;17.80;77.90;;;;;;5034011;28;20536;-45
2023/07/03 01:11:52;;;;;;;12.73;6.40;;;17.80;78.10;;;;;;5034405;28;20553;-44
2023/07/03 01:14:22;;;;;;;8.70;6.10;;;18.20;78.90;;;;;;5033887;28;20479;-46
2023/07/03 01:16:50;;;;;;;7.87;5.40;;;17.80;78.60;;;;;;5033972;28;20518;-45
2023/07/03 01:19:23;;;;;;;9.63;5.30;;;17.60;78.80;;;;;;5051455;28;20433;-47
2023/07/03 01:21:56;;;;;;;10.67;6.00;;;17.80;79.00;;;;;;5033804;28;20508;-46
2023/07/03 01:24:32;;;;;;;9.50;6.27;;;17.80;79.10;;;;;;5051959;28;20969;-46
2023/07/03 01:27:03;;;;;;;13.43;6.10;;;17.90;79.50;;;;;;5034206;28;20457;-45
2023/07/03 01:29:31;;;;;;;9.03;5.70;;;17.80;79.10;;;;;;5033522;28;20455;-45
2023/07/03 01:31:59;;;;;;;11.30;6.43;;;18.40;79.90;;;;;;5051435;28;20445;-46
2023/07/03 01:34:28;;;;;;;10.10;5.90;;;18.00;79.60;;;;;;5033667;28;20465;-47
2023/07/03 01:36:57;;;;;;;12.70;7.20;;;18.00;79.50;;;;;;5051610;28;20434;-45
2023/07/03 01:39:24;;;;;;;8.60;6.10;;;18.00;79.40;;;;;;5051175;28;20434;-46
2023/07/03 01:41:53;;;;;;;13.20;5.73;;;18.00;79.30;;;;;;5033660;28;20448;-45
2023/07/03 01:44:21;;;;;;;11.00;6.53;;;18.40;79.70;;;;;;5034104;28;20828;-44
2023/07/03 01:46:47;;;;;;;11.10;6.60;;;18.10;79.20;;;;;;5033443;28;20456;-45
2023/07/03 01:49:15;;;;;;;10.53;6.10;;;18.00;79.00;;;;;;5033077;28;20469;-45
2023/07/03 01:51:49;;;;;;;8.63;5.67;;;18.10;79.00;;;;;;5051371;28;20453;-46
2023/07/03 01:54:21;;;;;;;13.70;6.20;;;18.50;79.40;;;;;;5051826;28;20473;-46
2023/07/03 01:56:50;;;;;;;11.70;5.73;;;18.20;79.10;;;;;;5051365;28;20445;-46
2023/07/03 01:59:24;;;;;;;11.97;6.40;;;18.40;79.40;;;;;;5050880;28;20442;-46
2023/07/03 02:01:57;;;;;;;9.80;6.50;;;18.30;79.30;;;;;;5051059;28;20435;-46
2023/07/03 02:04:28;;;;;;;11.20;6.87;;;18.30;79.20;;;;;;5033291;28;20488;-46
2023/07/03 02:06:57;;;;;;;11.70;6.73;;;18.50;79.30;;;;;;5051274;28;20444;-47
2023/07/03 02:09:25;;;;;;;11.60;6.50;;;18.40;79.20;;;;;;5050914;28;20857;-46
2023/07/03 02:11:53;;;;;;;9.13;5.60;;;18.30;79.20;;;;;;5033598;28;20481;-46
2023/07/03 02:14:24;;;;;;;11.33;6.30;;;18.30;79.40;;;;;;5033388;28;20486;-46
2023/07/03 02:16:52;;;;;;;11.80;5.70;;;18.00;79.10;;;;;;5034315;28;20539;-47
2023/07/03 02:19:28;;;;;;;10.40;6.97;;;18.30;79.60;;;;;;5051828;28;20426;-46
2023/07/03 02:21:54;;;;;;;10.67;5.50;;;18.30;79.70;;;;;;5051303;28;20425;-48
2023/07/03 02:24:21;;;;;;;9.90;6.70;;;17.90;79.40;;;;;;5033189;28;20481;-47
2023/07/03 02:26:48;;;;;;;11.90;6.77;;;18.20;79.80;;;;;;5052731;28;20580;-47
2023/07/03 02:29:15;;;;;;;13.33;7.03;;;18.10;80.00;;;;;;5052098;28;20476;-47
2023/07/03 02:31:43;;;;;;;10.00;5.67;;;18.30;80.20;;;;;;5034722;28;20510;-47
2023/07/03 02:34:10;;;;;;;15.20;6.30;;;18.20;80.30;;;;;;5052302;28;20461;-47
2023/07/03 02:36:38;;;;;;;10.90;6.13;;;18.30;80.50;;;;;;5052945;28;20437;-46
2023/07/03 02:39:05;;;;;;;10.50;6.80;;;18.20;80.30;;;;;;5052492;28;20440;-47
2023/07/03 02:41:32;;;;;;;13.50;6.67;;;18.20;80.30;;;;;;5034179;28;20454;-47
2023/07/03 02:43:58;;;;;;;12.40;7.33;;;18.20;80.40;;;;;;5052608;28;20448;-47
2023/07/03 02:46:27;;;;;;;9.97;5.80;;;18.40;80.90;;;;;;5036468;28;20460;-49
2023/07/03 02:48:56;;;;;;;11.20;5.90;;;18.20;80.70;;;;;;5036273;28;21074;-47
2023/07/03 02:51:23;;;;;;;12.20;6.87;;;17.90;80.50;;;;;;5036778;28;20441;-47
2023/07/03 02:53:52;;;;;;;7.50;5.07;;;18.10;80.70;;;;;;5036632;28;20796;-47
2023/07/03 02:56:19;;;;;;;9.60;6.40;;;18.20;80.90;;;;;;5036545;28;20545;-48
2023/07/03 02:58:48;;;;;;;9.63;6.10;;;18.60;81.20;;;;;;5036325;28;20502;-47
2023/07/03 03:01:20;;;;;;;11.10;5.63;;;18.10;80.80;;;;;;5036665;28;20449;-47
2023/07/03 03:03:47;;;;;;;9.30;5.80;;;18.50;81.50;;;;;;5036593;28;20453;-48
2023/07/03 03:06:15;;;;;;;7.83;6.07;;;18.10;81.10;;;;;;5036435;28;20986;-46
2023/07/03 03:08:42;;;;;;;11.33;6.90;;;17.90;80.90;;;;;;5035937;28;20994;-46
2023/07/03 03:11:10;;;;;;;13.60;8.13;;;18.60;81.70;;;;;;5036307;28;20453;-47
2023/07/03 03:13:37;;;;;;;10.30;7.03;;;18.20;81.40;;;;;;5036166;28;20864;-47
2023/07/03 03:16:04;;;;;;;12.63;6.80;;;18.10;81.70;;;;;;5036239;28;21061;-47
2023/07/03 03:18:30;;;;;;;10.00;6.57;;;18.20;81.80;;;;;;5035686;28;20450;-47
2023/07/03 03:20:57;;;;;;;11.57;6.80;;;18.30;81.90;;;;;;5036239;28;20954;-46
2023/07/03 03:23:25;;;;;;;11.33;6.20;;;18.10;81.70;;;;;;5035949;28;20457;-47
2023/07/03 03:25:51;;;;;;;11.00;7.30;;;18.60;82.20;;;;;;5035952;28;20473;-46
2023/07/03 03:28:18;;;;;;;11.93;6.97;;;18.30;82.00;;;;;;5035436;28;20556;-47
2023/07/03 03:30:46;;;;;;;12.67;7.07;;;17.40;81.10;;;;;;5035969;28;20446;-47
2023/07/03 03:33:13;;;;;;;16.97;7.17;;;18.10;82.00;;;;;;5035993;28;20453;-47
2023/07/03 03:35:40;;;;;;;14.90;7.00;;;18.20;82.30;;;;;;5053432;28;20556;-46
2023/07/03 03:38:07;;;;;;;9.83;6.10;;;18.10;82.60;;;;;;5053339;28;20469;-46
2023/07/03 03:40:34;;;;;;;12.43;6.80;;;18.10;82.70;;;;;;5053561;28;20827;-47
2023/07/03 03:43:01;;;;;;;12.23;6.93;;;18.10;82.90;;;;;;5035538;28;20588;-46
2023/07/03 03:45:28;;;;;;;11.10;6.30;;;18.30;83.10;;;;;;5035468;28;20472;-46
2023/07/03 03:47:54;;;;;;;8.50;6.83;;;18.50;83.40;;;;;;5035355;28;20453;-47
2023/07/03 03:50:21;;;;;;;12.33;6.90;;;18.30;82.90;;;;;;5053218;28;20534;-47
2023/07/03 03:52:48;;;;;;;10.20;5.60;;;18.30;82.80;;;;;;5035528;28;20460;-46
2023/07/03 03:55:15;;;;;;;8.43;5.87;;;17.80;82.10;;;;;;5035530;28;20477;-47
2023/07/03 03:57:43;;;;;;;9.80;5.77;;;18.30;83.20;;;;;;5035763;28;20444;-47
2023/07/03 04:00:16;;;;;;;10.30;5.87;;;18.30;82.20;;;;;;5036240;28;20444;-47
2023/07/03 04:02:44;;;;;;;11.73;7.20;;;18.30;82.10;;;;;;5036837;28;20564;-47
2023/07/03 04:05:12;;;;;;;10.63;5.57;;;18.30;82.20;;;;;;5036836;28;20469;-48
2023/07/03 04:07:39;;;;;;;14.40;6.20;;;18.70;82.50;;;;;;5035955;28;20453;-47
2023/07/03 04:10:07;;;;;;;13.83;7.37;;;18.40;82.00;;;;;;5053656;28;20541;-47
2023/07/03 04:12:33;;;;;;;11.77;6.43;;;18.40;81.80;;;;;;5053524;28;20516;-47
2023/07/03 04:15:01;;;;;;;13.80;6.37;;;18.50;81.80;;;;;;5054114;28;20457;-48
2023/07/03 04:17:28;;;;;;;10.90;6.37;;;18.50;81.60;;;;;;5053294;28;20437;-48
2023/07/03 04:19:55;;;;;;;10.20;5.97;;;18.40;81.40;;;;;;5053415;28;20431;-48
2023/07/03 04:22:21;;;;;;;10.50;6.80;;;18.70;81.70;;;;;;5054091;28;20496;-50
2023/07/03 04:24:48;;;;;;;10.60;6.77;;;18.50;81.40;;;;;;5052931;28;20813;-51
2023/07/03 04:27:15;;;;;;;8.70;5.53;;;18.60;81.40;;;;;;5052682;28;20433;-51
2023/07/03 04:29:42;;;;;;;8.10;6.10;;;18.80;81.60;;;;;;5052275;28;20962;-48
2023/07/03 04:32:10;;;;;;;11.77;6.53;;;18.70;81.30;;;;;;5052525;28;20488;-51
2023/07/03 04:34:37;;;;;;;14.20;7.30;;;19.30;81.90;;;;;;5052468;28;20461;-50
2023/07/03 04:37:04;;;;;;;12.57;7.03;;;18.80;81.30;;;;;;5052514;28;20438;-50
2023/07/03 04:39:31;;;;;;;11.40;5.77;;;18.90;81.20;;;;;;5052094;28;20437;-49
2023/07/03 04:42:00;;;;;;;9.90;6.30;;;19.00;81.10;;;;;;5034490;28;20551;-49
2023/07/03 04:44:26;;;;;;;10.47;6.60;;;18.80;80.50;;;;;;5052225;28;20454;-49
2023/07/03 04:46:55;;;;;;;10.93;6.63;;;19.10;80.50;;;;;;5052269;28;20796;-50
2023/07/03 04:49:26;;;;;;;17.00;7.93;;;19.20;80.50;;;;;;5051959;28;20497;-50
2023/07/03 04:51:53;;;;;;;9.73;6.53;;;19.20;80.30;;;;;;5052513;28;20455;-49
2023/07/03 04:54:20;;;;;;;14.70;6.87;;;19.40;80.50;;;;;;5052362;28;20546;-50
2023/07/03 04:56:48;;;;;;;8.47;6.30;;;19.30;80.30;;;;;;5052645;28;20438;-50
2023/07/03 04:59:15;;;;;;;11.73;6.50;;;19.00;79.90;;;;;;5051835;28;20514;-51
2023/07/03 05:01:42;;;;;;;13.80;7.50;;;19.30;80.10;;;;;;5052481;28;20434;-51
2023/07/03 05:04:09;;;;;;;12.40;7.07;;;19.80;80.40;;;;;;5052408;28;20454;-49
2023/07/03 05:06:37;;;;;;;14.47;7.17;;;19.50;79.70;;;;;;5051710;28;20434;-50
2023/07/03 05:09:05;;;;;;;9.90;6.23;;;19.60;79.60;;;;;;5052015;28;20474;-50
2023/07/03 05:11:33;;;;;;;11.07;6.87;;;19.60;79.20;;;;;;5052077;28;20431;-50
2023/07/03 05:14:00;;;;;;;11.33;8.00;;;19.70;79.10;;;;;;5051871;28;20867;-50
2023/07/03 05:16:27;;;;;;;11.93;7.03;;;19.30;78.40;;;;;;5051866;28;20825;-49
2023/07/03 05:18:54;;;;;;;16.03;7.93;;;19.80;78.90;;;;;;5051961;28;20801;-50
2023/07/03 05:21:20;;;;;;;11.90;7.30;;;19.90;78.40;;;;;;5052108;28;20439;-50
2023/07/03 05:23:48;;;;;;;18.83;7.10;;;19.90;78.10;;;;;;5051622;28;20458;-50
2023/07/03 05:26:15;;;;;;;24.73;9.07;;;20.10;78.30;;;;;;5051562;28;20431;-50
2023/07/03 05:28:41;;;;;;;21.57;8.93;;;20.10;78.00;;;;;;5051292;28;20995;-50
2023/07/03 05:31:08;;;;;;;15.53;10.33;;;20.20;77.90;;;;;;5051148;28;20432;-50
2023/07/03 05:33:34;;;;;;;14.90;9.80;;;20.20;78.00;;;;;;5051357;28;20435;-50
2023/07/03 05:36:02;;;;;;;13.97;7.50;;;20.30;77.70;;;;;;5051636;28;20456;-50
2023/07/03 05:38:29;;;;;;;21.87;9.90;;;20.40;77.50;;;;;;5051463;28;20935;-47
2023/07/03 05:40:57;;;;;;;11.03;8.20;;;20.50;77.30;;;;;;5033230;28;20956;-47
2023/07/03 05:43:26;;;;;;;11.77;7.67;;;20.50;77.10;;;;;;5051430;28;20893;-47
2023/07/03 05:45:53;;;;;;;20.50;8.70;;;20.60;76.90;;;;;;5051574;28;20460;-47
2023/07/03 05:48:19;;;;;;;12.40;7.73;;;20.70;76.00;;;;;;5033343;28;20491;-49
2023/07/03 05:50:46;;;;;;;12.73;7.80;;;21.00;76.10;;;;;;5051567;28;20433;-47
2023/07/03 05:53:13;;;;;;;16.17;7.47;;;20.50;75.10;;;;;;5051757;28;20444;-46
2023/07/03 05:55:40;;;;;;;13.03;6.93;;;20.20;74.50;;;;;;5051760;28;20497;-46
2023/07/03 05:58:08;;;;;;;13.20;7.30;;;20.70;75.30;;;;;;5051268;28;20439;-48
2023/07/03 06:00:34;;;;;;;19.43;8.10;;;20.70;75.30;;;;;;5050953;28;20428;-47
2023/07/03 06:03:02;;;;;;;13.37;7.10;;;20.80;75.20;;;;;;5051556;28;20758;-48
2023/07/03 06:05:28;;;;;;;15.53;7.37;;;20.70;74.90;;;;;;5051481;28;20837;-47
2023/07/03 06:07:55;;;;;;;16.33;7.27;;;20.20;74.40;;;;;;5032953;28;20779;-46
2023/07/03 06:10:23;;;;;;;13.60;7.70;;;20.50;75.00;;;;;;5050951;28;20514;-46
2023/07/03 06:12:50;;;;;;;11.93;6.53;;;20.70;75.10;;;;;;5050565;28;20436;-49
2023/07/03 06:15:18;;;;;;;13.97;7.07;;;20.70;75.10;;;;;;5050941;28;20463;-48
2023/07/03 06:17:44;;;;;;;17.23;6.73;;;20.80;75.00;;;;;;5051890;28;20531;-48
2023/07/03 06:20:11;;;;;;;10.43;6.40;;;20.80;75.00;;;;;;5054920;28;20449;-46
2023/07/03 06:22:39;;;;;;;13.30;7.50;;;21.00;75.00;;;;;;5054617;28;20435;-47
2023/07/03 06:25:07;;;;;;;14.40;8.47;;;21.10;74.90;;;;;;5054930;28;20448;-48
2023/07/03 06:27:34;;;;;;;12.70;7.47;;;21.20;74.90;;;;;;5054933;28;20864;-46
2023/07/03 06:30:00;;;;;;;13.20;8.10;;;21.00;74.50;;;;;;5054580;28;20488;-48
2023/07/03 06:32:28;;;;;;;11.27;7.53;;;21.70;74.90;;;;;;5055022;28;20441;-48
2023/07/03 06:34:55;;;;;;;17.80;7.80;;;21.70;74.40;;;;;;5036642;28;20474;-47
2023/07/03 06:37:21;;;;;;;9.90;5.83;;;21.90;73.90;;;;;;5054695;28;20432;-48
2023/07/03 06:39:48;;;;;;;11.40;6.67;;;22.10;73.50;;;;;;5054186;28;20500;-46
2023/07/03 06:42:15;;;;;;;11.50;5.77;;;22.20;73.20;;;;;;5054757;28;20441;-47
2023/07/03 06:44:44;;;;;;;10.17;5.50;;;22.30;72.80;;;;;;5037498;28;20831;-47
2023/07/03 06:47:11;;;;;;;11.37;6.50;;;22.30;72.30;;;;;;5053978;28;20432;-47
2023/07/03 06:49:39;;;;;;;12.10;6.93;;;22.20;72.00;;;;;;5053831;28;20983;-46
2023/07/03 06:52:06;;;;;;;18.53;7.17;;;22.40;71.80;;;;;;5054516;28;20430;-46
2023/07/03 06:54:33;;;;;;;11.60;7.00;;;22.60;71.60;;;;;;5053953;28;20470;-49
2023/07/03 06:56:59;;;;;;;11.23;6.23;;;22.40;71.40;;;;;;5054247;28;20438;-47
2023/07/03 06:59:26;;;;;;;13.60;6.63;;;22.50;71.40;;;;;;5053856;28;20442;-47
2023/07/03 07:01:53;;;;;;;12.17;7.27;;;22.50;71.60;;;;;;5054322;28;20910;-47
2023/07/03 07:04:19;;;;;;;12.90;7.07;;;22.30;71.60;;;;;;5036413;28;20489;-46
2023/07/03 07:06:48;;;;;;;12.00;6.70;;;22.30;71.90;;;;;;5054118;28;20798;-48
2023/07/03 07:09:15;;;;;;;13.60;6.30;;;22.30;72.10;;;;;;5054304;28;20480;-47
2023/07/03 07:11:42;;;;;;;11.13;6.57;;;22.30;72.00;;;;;;5054086;28;20984;-48
2023/07/03 07:14:08;;;;;;;16.53;8.57;;;22.30;71.80;;;;;;5054621;28;20457;-47
2023/07/03 07:16:37;;;;;;;9.47;6.17;;;22.30;72.00;;;;;;5053844;28;20427;-47
2023/07/03 07:19:05;;;;;;;14.67;7.00;;;22.30;72.00;;;;;;5053606;28;20533;-47
2023/07/03 07:21:34;;;;;;;10.87;6.10;;;22.30;71.60;;;;;;5053917;28;20422;-48
2023/07/03 07:24:12;;;;;;;10.33;6.70;;;22.40;72.00;;;;;;5054015;28;20478;-48
2023/07/03 07:26:38;;;;;;;12.80;6.07;;;22.50;72.10;;;;;;5053885;28;20450;-48
2023/07/03 07:29:05;;;;;;;13.00;6.77;;;22.50;71.40;;;;;;5053353;28;20503;-48
2023/07/03 07:31:32;;;;;;;11.87;6.57;;;22.50;71.20;;;;;;5053636;28;20530;-48
2023/07/03 07:33:59;;;;;;;9.73;6.00;;;22.50;71.50;;;;;;5054056;28;20469;-48
2023/07/03 07:36:27;;;;;;;12.33;6.57;;;22.50;71.50;;;;;;5053989;28;21173;-48
2023/07/03 07:38:54;;;;;;;12.23;6.13;;;22.70;71.40;;;;;;5053265;28;20479;-48
2023/07/03 07:41:22;;;;;;;11.00;5.90;;;22.80;71.40;;;;;;5053847;28;20809;-47
2023/07/03 07:43:52;;;;;;;10.53;5.97;;;22.80;71.10;;;;;;5053744;28;20518;-48
2023/07/03 07:46:19;;;;;;;17.33;6.73;;;22.80;70.80;;;;;;5053925;28;20439;-47
2023/07/03 07:48:48;;;;;;;7.87;5.40;;;22.80;70.60;;;;;;5054063;28;20771;-48
2023/07/03 07:51:14;;;;;;;11.53;6.10;;;23.10;70.30;;;;;;5054225;28;21011;-48
2023/07/03 07:53:41;;;;;;;14.43;6.43;;;23.30;70.00;;;;;;5053709;28;20440;-47
2023/07/03 07:56:09;;;;;;;14.73;6.73;;;23.20;69.50;;;;;;5074413;22;20493;-51
2023/07/03 07:58:37;;;;;;;10.60;5.83;;;23.50;69.70;;;;;;5055354;28;20446;-49
2023/07/03 08:01:04;;;;;;;11.40;5.53;;;23.50;69.10;;;;;;5073151;28;20430;-50
2023/07/03 08:03:31;;;;;;;15.13;6.63;;;23.50;69.00;;;;;;5073244;28;20448;-49
2023/07/03 08:05:58;;;;;;;12.23;6.10;;;23.60;68.90;;;;;;5072952;28;20455;-50
2023/07/03 08:08:26;;;;;;;10.60;5.73;;;23.60;68.50;;;;;;5072912;28;20450;-49
2023/07/03 08:10:53;;;;;;;10.70;6.70;;;23.50;67.70;;;;;;5073826;28;20496;-50
2023/07/03 08:13:20;;;;;;;8.30;5.50;;;23.70;67.60;;;;;;5073236;28;20441;-49
2023/07/03 08:15:48;;;;;;;9.70;6.30;;;23.70;67.80;;;;;;5073161;28;20533;-50
2023/07/03 08:18:16;;;;;;;14.83;5.87;;;23.50;67.50;;;;;;5072794;28;20444;-49
2023/07/03 08:20:43;;;;;;;10.70;6.27;;;23.80;67.40;;;;;;5073185;28;20710;-49
2023/07/03 08:23:10;;;;;;;9.10;5.10;;;23.80;67.20;;;;;;5072912;28;20440;-50
2023/07/03 08:25:37;;;;;;;12.93;4.97;;;23.80;66.40;;;;;;5072909;28;20463;-51
2023/07/03 08:28:05;;;;;;;10.77;6.37;;;23.90;65.50;;;;;;5072770;28;20818;-49
2023/07/03 08:30:32;;;;;;;12.43;5.57;;;23.90;65.60;;;;;;5072470;28;20486;-50
2023/07/03 08:33:00;;;;;;;13.40;5.80;;;23.90;66.00;;;;;;5072693;28;20805;-49
2023/07/03 08:35:26;;;;;;;14.70;5.50;;;23.90;66.00;;;;;;5072418;28;20453;-51
2023/07/03 08:37:53;;;;;;;12.40;6.23;;;23.60;65.60;;;;;;5072823;28;20430;-49
2023/07/03 08:40:22;;;;;;;8.50;6.27;;;23.60;65.60;;;;;;5072626;28;20526;-51
2023/07/03 08:42:53;;;;;;;11.20;5.20;;;23.70;65.30;;;;;;5053600;28;20617;-49
2023/07/03 08:45:21;;;;;;;12.13;6.57;;;23.70;65.50;;;;;;5072373;28;20458;-51
2023/07/03 08:47:52;;;;;;;9.30;5.37;;;23.60;65.50;;;;;;5054676;28;20444;-51
2023/07/03 08:50:23;;;;;;;14.33;5.50;;;23.50;65.10;;;;;;5071882;28;20482;-50
2023/07/03 08:52:54;;;;;;;25.37;6.17;;;23.40;65.00;;;;;;5072247;28;20432;-49
2023/07/03 08:55:24;;;;;;;8.30;4.57;;;23.30;64.90;;;;;;5072097;28;20467;-49
2023/07/03 08:57:51;;;;;;;14.20;6.00;;;23.20;65.60;;;;;;5072285;28;20435;-50
2023/07/03 09:00:18;;;;;;;13.07;5.40;;;23.10;65.60;;;;;;5071829;28;20428;-50
2023/07/03 09:02:50;;;;;;;10.03;5.97;;;23.10;66.70;;;;;;5071944;28;20859;-50
2023/07/03 09:05:31;;;;;;;8.70;4.83;;;23.20;67.40;;;;;;5072033;28;20466;-51
2023/07/03 09:08:02;;;;;;;9.57;4.50;;;23.00;67.50;;;;;;5071953;28;20441;-50
2023/07/03 09:10:34;;;;;;;12.07;5.77;;;23.00;66.60;;;;;;5071652;28;20485;-50
2023/07/03 09:13:05;;;;;;;9.43;5.00;;;23.00;65.20;;;;;;5073318;28;20461;-50
2023/07/03 09:15:35;;;;;;;12.13;5.23;;;23.00;64.30;;;;;;5071938;28;20467;-50
2023/07/03 09:18:10;;;;;;;8.33;4.03;;;23.00;63.90;;;;;;5071342;28;20435;-49
2023/07/03 09:20:40;;;;;;;10.50;4.97;;;22.80;62.20;;;;;;5071553;28;20435;-50
2023/07/03 09:23:13;;;;;;;10.00;4.90;;;23.10;61.00;;;;;;5071671;28;20457;-51
2023/07/03 09:25:44;;;;;;;11.10;4.97;;;23.00;60.00;;;;;;5071669;28;20467;-49
2023/07/03 09:28:11;;;;;;;12.43;5.43;;;23.00;59.90;;;;;;5071187;28;20542;-49
2023/07/03 09:30:38;;;;;;;8.77;4.90;;;23.20;59.60;;;;;;5072046;28;20482;-49
2023/07/03 09:33:06;;;;;;;6.77;5.07;;;23.30;59.60;;;;;;5071909;28;20435;-50
2023/07/03 09:35:36;;;;;;;8.53;4.60;;;23.60;59.00;;;;;;5071512;28;20525;-50
2023/07/03 09:38:09;;;;;;;12.63;4.57;;;23.80;58.30;;;;;;5071586;28;20441;-50
2023/07/03 09:40:38;;;;;;;8.63;4.60;;;24.00;57.20;;;;;;5053385;28;20819;-50
2023/07/03 09:43:11;;;;;;;10.00;4.77;;;24.10;57.10;;;;;;5071413;28;20524;-51
2023/07/03 09:45:39;;;;;;;9.60;4.43;;;24.00;56.80;;;;;;5071364;28;20448;-51
2023/07/03 09:48:13;;;;;;;6.67;3.87;;;24.30;56.40;;;;;;5071149;28;20436;-49
2023/07/03 09:50:41;;;;;;;9.13;4.60;;;24.40;55.70;;;;;;5071178;28;21007;-49
2023/07/03 09:53:16;;;;;;;9.13;4.67;;;24.50;55.70;;;;;;5071016;28;20949;-50
2023/07/03 09:55:43;;;;;;;10.17;5.07;;;24.60;55.50;;;;;;5070894;28;20965;-50
2023/07/03 09:58:15;;;;;;;9.83;4.63;;;24.60;55.30;;;;;;5070907;28;20441;-50
2023/07/03 10:00:47;;;;;;;11.17;5.10;;;24.70;55.20;;;;;;5071476;28;20425;-51
2023/07/03 10:03:14;;;;;;;10.93;4.27;;;24.60;54.20;;;;;;5071349;28;20430;-50
2023/07/03 10:05:43;;;;;;;10.48;4.30;;;24.80;54.70;;;;;;5070849;28;20507;-50
2023/07/03 10:08:11;;;;;;;12.97;9.20;;;24.90;53.70;;;;;;5071175;28;20238;-50
2023/07/03 10:10:39;;;;;;;8.50;5.30;;;24.90;54.20;;;;;;5071194;28;20484;-50
2023/07/03 10:13:11;;;;;;;12.80;5.30;;;24.80;54.20;;;;;;5071347;28;20426;-49
2023/07/03 10:15:40;;;;;;;8.80;4.77;;;24.80;54.50;;;;;;5071448;28;20965;-50
2023/07/03 10:18:12;;;;;;;6.40;3.70;;;24.70;54.30;;;;;;5053231;28;20449;-49
2023/07/03 10:20:43;;;;;;;10.23;4.30;;;24.80;54.40;;;;;;5053096;28;20449;-50
2023/07/03 10:23:15;;;;;;;9.82;4.40;;;24.80;54.40;;;;;;5070099;28;20421;-50
2023/07/03 10:25:48;;;;;;;8.93;4.50;;;25.20;53.70;;;;;;5071120;28;20273;-50
2023/07/03 10:28:20;;;;;;;11.30;5.03;;;25.10;53.70;;;;;;5070422;28;20906;-50
2023/07/03 10:30:53;;;;;;;8.93;3.57;;;25.00;53.50;;;;;;5071741;28;20985;-50
2023/07/03 10:33:25;;;;;;;10.47;5.10;;;25.10;53.30;;;;;;5070894;28;20546;-51
2023/07/03 10:35:52;;;;;;;10.87;4.40;;;25.20;53.20;;;;;;5070704;28;20457;-49
2023/07/03 10:38:28;;;;;;;13.30;3.97;;;25.20;52.80;;;;;;5070609;28;20433;-49
2023/07/03 10:40:59;;;;;;;6.43;3.40;;;25.30;52.60;;;;;;5070996;28;20430;-49
2023/07/03 10:43:30;;;;;;;8.53;3.80;;;25.20;52.70;;;;;;5071001;28;20434;-50
2023/07/03 10:45:58;;;;;;;8.37;4.37;;;25.20;52.80;;;;;;5071282;28;20450;-51
2023/07/03 10:48:29;;;;;;;13.63;5.07;;;25.30;53.10;;;;;;5070799;28;20433;-50
2023/07/03 10:51:06;;;;;;;7.10;3.93;;;25.30;53.10;;;;;;5071070;28;20469;-49
2023/07/03 10:53:41;;;;;;;8.13;4.17;;;25.50;53.10;;;;;;5070770;28;20437;-50
2023/07/03 10:56:13;;;;;;;7.37;4.23;;;25.60;52.70;;;;;;5070667;28;20464;-50
2023/07/03 10:58:46;;;;;;;9.80;4.50;;;25.80;52.60;;;;;;5070660;28;20454;-50
2023/07/03 11:01:20;;;;;;;10.10;4.23;;;25.80;52.20;;;;;;5070925;28;20425;-52
2023/07/03 11:03:55;;;;;;;8.10;4.07;;;25.90;51.80;;;;;;5070821;28;20434;-49
2023/07/03 11:06:29;;;;;;;6.27;3.47;;;26.00;51.60;;;;;;5073582;28;20543;-51
2023/07/03 11:09:05;;;;;;;10.20;4.23;;;26.10;51.40;;;;;;5074136;28;20433;-50
2023/07/03 11:11:42;;;;;;;15.00;4.00;;;26.00;51.60;;;;;;5074049;28;20496;-51
2023/07/03 11:14:18;;;;;;;8.80;4.00;;;26.00;50.90;;;;;;5074031;28;20434;-49
2023/07/03 11:17:00;;;;;;;14.53;3.73;;;25.80;51.30;;;;;;5074750;28;20805;-50
2023/07/03 11:19:37;;;;;;;7.30;3.70;;;25.70;51.10;;;;;;5073221;28;20430;-49
2023/07/03 11:22:13;;;;;;;8.07;3.47;;;25.60;51.40;;;;;;5074175;28;20794;-50
2023/07/03 11:24:54;;;;;;;7.63;3.60;;;25.50;51.60;;;;;;5074309;28;20477;-50
2023/07/03 11:27:29;;;;;;;9.27;4.20;;;25.30;51.90;;;;;;5074385;28;20433;-50
2023/07/03 11:29:57;;;;;;;7.43;3.57;;;25.20;52.30;;;;;;5055719;28;20461;-49
2023/07/03 11:32:24;;;;;;;9.17;3.67;;;25.10;52.80;;;;;;5074225;28;20871;-49
2023/07/03 11:34:52;;;;;;;9.57;4.17;;;25.00;53.30;;;;;;5073861;28;21027;-50
2023/07/03 11:37:34;;;;;;;9.30;3.50;;;25.10;52.90;;;;;;5073729;28;20463;-50
2023/07/03 11:40:24;;;;;;;7.17;3.30;;;24.90;53.10;;;;;;5073766;28;20436;-49
2023/07/03 11:42:55;;;;;;;6.70;3.37;;;25.10;53.50;;;;;;5073857;28;20445;-49
2023/07/03 11:45:27;;;;;;;10.27;3.60;;;25.10;53.40;;;;;;5073918;28;20458;-49
2023/07/03 11:47:54;;;;;;;8.53;3.60;;;25.10;53.30;;;;;;5074523;28;20989;-49
2023/07/03 11:50:31;;;;;;;11.20;4.50;;;25.00;53.60;;;;;;5073158;28;20426;-50
2023/07/03 11:52:58;;;;;;;9.63;3.80;;;25.20;52.80;;;;;;5073413;28;20217;-50
2023/07/03 11:55:39;;;;;;;9.17;3.90;;;25.20;53.10;;;;;;5073313;28;20469;-51
2023/07/03 11:58:06;;;;;;;8.67;3.70;;;25.40;53.20;;;;;;5073289;28;20539;-50
2023/07/03 12:00:34;;;;;;;7.57;3.60;;;25.40;53.30;;;;;;5072953;28;20438;-51
2023/07/03 12:03:03;;;;;;;10.77;3.70;;;25.30;53.30;;;;;;5072739;28;20498;-50
2023/07/03 12:05:56;;;;;;;9.40;3.67;;;25.20;53.60;;;;;;5072900;28;20453;-49
2023/07/03 12:08:41;;;;;;;12.57;4.33;;;25.20;53.70;;;;;;5072450;28;20510;-51
2023/07/03 12:11:11;;;;;;;9.43;3.70;;;25.50;54.20;;;;;;5072304;28;20469;-50
2023/07/03 12:13:47;;;;;;;10.27;3.50;;;25.20;54.10;;;;;;5072764;28;20441;-50
2023/07/03 12:16:16;;;;;;;8.57;3.90;;;25.10;54.30;;;;;;5072993;28;20461;-49
2023/07/03 12:18:43;;;;;;;13.80;4.47;;;25.20;54.70;;;;;;5072991;28;20823;-51
2023/07/03 12:21:10;;;;;;;9.03;4.00;;;25.20;54.70;;;;;;5072993;28;20920;-50
2023/07/03 12:23:38;;;;;;;6.33;3.17;;;25.10;54.40;;;;;;5072952;28;20433;-49
2023/07/03 12:26:07;;;;;;;10.53;3.77;;;25.10;54.00;;;;;;5054683;28;20469;-51
2023/07/03 12:28:35;;;;;;;8.97;4.20;;;25.00;54.10;;;;;;5072699;28;20430;-49
2023/07/03 12:31:14;;;;;;;11.27;3.80;;;24.90;54.10;;;;;;5072404;28;20469;-50
2023/07/03 12:33:55;;;;;;;13.13;3.40;;;24.80;53.40;;;;;;5072843;28;20429;-53
2023/07/03 12:36:23;;;;;;;9.97;4.37;;;24.70;53.50;;;;;;5072887;28;20460;-49
2023/07/03 12:38:50;;;;;;;8.73;4.43;;;24.50;53.60;;;;;;5072976;28;20425;-50
2023/07/03 12:41:23;;;;;;;9.83;3.80;;;24.60;53.90;;;;;;5072978;28;20445;-49
2023/07/03 12:43:52;;;;;;;10.80;3.87;;;24.60;54.00;;;;;;5072842;28;20437;-50
2023/07/03 12:46:27;;;;;;;13.80;3.57;;;24.70;54.10;;;;;;5072226;28;20468;-48
2023/07/03 12:49:05;;;;;;;11.77;4.03;;;25.00;54.30;;;;;;5072371;28;20425;-50